createdAt,value
2019-03-19T00:00:45.603Z,99369.47
2019-03-19T00:03:51.325Z,99374.77
2019-03-19T00:06:57.077Z,99372.75
2019-03-19T00:10:02.831Z,99365.38
2019-03-19T00:13:08.726Z,99368.45
2019-03-19T00:16:14.457Z,99372.05
2019-03-19T00:19:22.465Z,99369.11
2019-03-19T00:22:27.619Z,99365.12
2019-03-19T00:25:33.371Z,99374.57
2019-03-19T00:28:39.310Z,99367.16
2019-03-19T00:31:45.089Z,99375.55
2019-03-19T00:34:50.836Z,99378.42
2019-03-19T00:37:56.618Z,99382.05
2019-03-19T00:41:02.489Z,99382.12
2019-03-19T00:44:08.388Z,99379.64
2019-03-19T00:47:14.208Z,99378.28
2019-03-19T00:50:19.908Z,99380.79
2019-03-19T00:53:25.706Z,99375.06
2019-03-19T00:56:31.469Z,99378.36
2019-03-19T00:59:37.380Z,99375.66
2019-03-19T01:02:43.207Z,99378.78
2019-03-19T01:05:49.030Z,99374.05
2019-03-19T01:08:54.765Z,99366.63
2019-03-19T01:12:00.534Z,99369.09
2019-03-19T01:15:07.541Z,99372.61
2019-03-19T01:18:14.290Z,99367.30
2019-03-19T01:21:20.075Z,99368.10
2019-03-19T01:24:25.976Z,99368.55
2019-03-19T01:27:32.753Z,99371.39
2019-03-19T01:30:38.531Z,99376.91
2019-03-19T01:33:44.274Z,99372.25
2019-03-19T01:36:50.010Z,99378.96
2019-03-19T01:39:55.923Z,99377.23
2019-03-19T01:43:01.656Z,99376.31
2019-03-19T01:46:07.487Z,99377.04
2019-03-19T01:49:13.216Z,99378.19
2019-03-19T01:52:19.977Z,99385.24
2019-03-19T01:55:25.920Z,99388.27
2019-03-19T01:58:31.689Z,99395.02
2019-03-19T02:01:37.514Z,99394.42
2019-03-19T02:04:43.255Z,99398.09
2019-03-19T02:07:49.043Z,99405.77
2019-03-19T02:10:54.789Z,99410.56
2019-03-19T02:14:00.562Z,99414.19
2019-03-19T02:17:06.484Z,99413.88
2019-03-19T02:20:13.278Z,99408.86
2019-03-19T02:23:19.000Z,99412.95
2019-03-19T02:26:24.899Z,99409.14
2019-03-19T02:29:30.688Z,99404.09
2019-03-19T02:32:36.461Z,99410.77
2019-03-19T02:35:42.236Z,99409.92
2019-03-19T02:38:48.037Z,99414.36
2019-03-19T02:41:53.781Z,99416.05
2019-03-19T02:44:59.496Z,99415.73
2019-03-19T02:48:05.377Z,99421.03
2019-03-19T02:51:11.141Z,99420.23
2019-03-19T02:54:16.848Z,99433.00
2019-03-19T02:57:22.637Z,99433.22
2019-03-19T03:00:28.484Z,99436.89
2019-03-19T03:03:34.355Z,99433.84
2019-03-19T03:06:40.077Z,99427.99
2019-03-19T03:09:45.870Z,99429.14
2019-03-19T03:12:51.646Z,99431.59
2019-03-19T03:15:57.406Z,99434.16
2019-03-19T03:19:03.180Z,99442.00
2019-03-19T03:22:09.015Z,99442.05
2019-03-19T03:25:15.032Z,99433.66
2019-03-19T03:28:20.795Z,99438.75
2019-03-19T03:31:27.670Z,99441.02
2019-03-19T03:34:33.447Z,99435.36
2019-03-19T03:37:39.198Z,99448.45
2019-03-19T03:40:44.930Z,99441.05
2019-03-19T03:43:50.674Z,99440.06
2019-03-19T03:46:56.408Z,99453.33
2019-03-19T03:50:02.188Z,99453.55
2019-03-19T03:53:08.009Z,99454.14
2019-03-19T03:56:13.849Z,99463.53
2019-03-19T03:59:21.224Z,99467.58
2019-03-19T04:02:27.050Z,99477.06
2019-03-19T04:05:32.761Z,99475.48
2019-03-19T04:08:38.515Z,99477.83
2019-03-19T04:11:44.278Z,99476.95
2019-03-19T04:14:50.060Z,99475.41
2019-03-19T04:17:55.876Z,99478.95
2019-03-19T04:21:01.645Z,99482.27
2019-03-19T04:24:07.476Z,99481.61
2019-03-19T04:27:16.439Z,99487.19
2019-03-19T04:30:21.022Z,99493.72
2019-03-19T04:33:26.748Z,99487.47
2019-03-19T04:36:32.777Z,99491.88
2019-03-19T04:39:38.531Z,99491.11
2019-03-19T04:42:44.811Z,99492.30
2019-03-19T04:45:50.603Z,99497.34
2019-03-19T04:48:56.414Z,99504.52
2019-03-19T04:52:02.189Z,99504.38
2019-03-19T04:55:08.455Z,99502.56
2019-03-19T04:58:14.286Z,99507.28
2019-03-19T05:01:20.143Z,99513.64
2019-03-19T05:04:25.883Z,99522.87
2019-03-19T05:07:31.818Z,99523.34
2019-03-19T05:10:37.801Z,99516.64
2019-03-19T05:13:43.530Z,99524.52
2019-03-19T05:16:49.319Z,99526.46
2019-03-19T05:19:55.048Z,99531.70
2019-03-19T05:23:00.807Z,99529.27
2019-03-19T05:26:06.803Z,99527.93
2019-03-19T05:29:12.692Z,99529.75
2019-03-19T05:32:18.435Z,99540.88
2019-03-19T05:35:25.247Z,99541.22
2019-03-19T05:38:31.043Z,99539.67
2019-03-19T05:41:36.801Z,99539.91
2019-03-19T05:44:42.557Z,99534.97
2019-03-19T05:47:48.308Z,99545.55
2019-03-19T05:50:54.231Z,99549.75
2019-03-19T05:54:00.051Z,99543.11
2019-03-19T05:57:06.008Z,99557.95
2019-03-19T06:00:12.770Z,99559.39
2019-03-19T06:03:18.773Z,99561.06
2019-03-19T06:06:24.533Z,99566.59
2019-03-19T06:09:30.299Z,99569.05
2019-03-19T06:12:36.572Z,99571.14
2019-03-19T06:15:42.311Z,99571.70
2019-03-19T06:18:48.086Z,99578.32
2019-03-19T06:21:53.823Z,99573.81
2019-03-19T06:24:59.608Z,99571.66
2019-03-19T06:28:05.552Z,99575.36
2019-03-19T06:31:11.396Z,99562.00
2019-03-19T06:34:17.137Z,99565.27
2019-03-19T06:37:22.863Z,99563.67
2019-03-19T06:40:28.644Z,99568.63
2019-03-19T06:43:34.415Z,99570.97
2019-03-19T06:46:43.315Z,99567.85
2019-03-19T06:49:49.077Z,99572.80
2019-03-19T06:52:54.842Z,99577.94
2019-03-19T06:56:00.620Z,99570.97
2019-03-19T06:59:06.373Z,99572.23
2019-03-19T07:02:12.165Z,99579.02
2019-03-19T07:05:18.615Z,99575.02
2019-03-19T07:08:24.484Z,99575.22
2019-03-19T07:11:30.314Z,99575.22
2019-03-19T07:14:36.096Z,99571.39
2019-03-19T07:17:41.827Z,99577.08
2019-03-19T07:20:48.620Z,99574.70
2019-03-19T07:23:54.349Z,99578.34
2019-03-19T07:27:00.169Z,99581.74
2019-03-19T07:30:08.000Z,99580.85
2019-03-19T07:33:13.834Z,99578.50
2019-03-19T07:36:19.545Z,99580.11
2019-03-19T07:39:25.323Z,99576.51
2019-03-19T07:42:31.052Z,99576.80
2019-03-19T07:45:36.927Z,99568.67
2019-03-19T07:48:42.666Z,99574.69
2019-03-19T07:51:48.417Z,99573.64
2019-03-19T07:54:54.258Z,99576.31
2019-03-19T07:58:00.014Z,99573.37
2019-03-19T08:01:05.883Z,99569.60
2019-03-19T08:04:11.716Z,99570.23
2019-03-19T08:07:17.511Z,99569.97
2019-03-19T08:10:23.313Z,99564.34
2019-03-19T08:13:29.048Z,99564.87
2019-03-19T08:16:34.800Z,99561.38
2019-03-19T08:19:40.523Z,99564.64
2019-03-19T08:22:46.469Z,99560.27
2019-03-19T08:25:52.295Z,99559.41
2019-03-19T08:28:58.063Z,99553.34
2019-03-19T08:32:03.820Z,99546.84
2019-03-19T08:35:09.639Z,99548.84
2019-03-19T08:38:15.420Z,99549.78
2019-03-19T08:41:21.171Z,99548.75
2019-03-19T08:44:28.041Z,99557.69
2019-03-19T08:47:33.966Z,99556.97
2019-03-19T08:50:39.707Z,99556.04
2019-03-19T08:53:45.535Z,99551.23
2019-03-19T08:56:51.239Z,99549.66
2019-03-19T08:59:57.242Z,99553.02
2019-03-19T09:03:03.190Z,99544.32
2019-03-19T09:06:09.051Z,99552.80
2019-03-19T09:09:14.873Z,99546.91
2019-03-19T09:12:20.600Z,99546.26
2019-03-19T09:15:26.435Z,99548.53
2019-03-19T09:18:32.161Z,99550.36
2019-03-19T09:21:38.006Z,99549.22
2019-03-19T09:24:43.819Z,99556.58
2019-03-19T09:27:49.701Z,99549.59
2019-03-19T09:30:55.431Z,99551.74
2019-03-19T09:34:01.223Z,99542.97
2019-03-19T09:37:06.934Z,99542.77
2019-03-19T09:40:14.210Z,99545.70
2019-03-19T09:43:19.997Z,99545.00
2019-03-19T09:46:25.724Z,99550.65
2019-03-19T09:49:31.580Z,99540.52
2019-03-19T09:52:37.326Z,99535.07
2019-03-19T09:55:43.065Z,99526.59
2019-03-19T09:58:48.795Z,99530.19
2019-03-19T10:01:54.582Z,99533.17
2019-03-19T10:05:00.349Z,99531.98
2019-03-19T10:08:06.285Z,99539.34
2019-03-19T10:11:12.092Z,99530.55
2019-03-19T10:14:17.951Z,99534.82
2019-03-19T10:17:23.798Z,99534.26
2019-03-19T10:20:29.601Z,99531.17
2019-03-19T10:23:35.446Z,99527.72
2019-03-19T10:26:41.269Z,99522.25
2019-03-19T10:29:47.116Z,99516.83
2019-03-19T10:32:52.932Z,99518.66
2019-03-19T10:35:58.691Z,99515.95
2019-03-19T10:39:06.210Z,99513.95
2019-03-19T10:42:12.062Z,99505.89
2019-03-19T10:45:18.090Z,99503.25
2019-03-19T10:48:23.867Z,99504.04
2019-03-19T10:51:29.611Z,99505.46
2019-03-19T10:54:35.528Z,99497.34
2019-03-19T10:57:41.299Z,99502.86
2019-03-19T11:00:47.311Z,99489.53
2019-03-19T11:03:53.014Z,99493.04
2019-03-19T11:06:58.752Z,99493.63
2019-03-19T11:10:04.752Z,99487.23
2019-03-19T11:13:10.518Z,99482.27
2019-03-19T11:16:16.245Z,99481.44
2019-03-19T11:19:21.979Z,99478.55
2019-03-19T11:22:27.866Z,99480.73
2019-03-19T11:25:33.712Z,99476.53
2019-03-19T11:28:39.482Z,99474.94
2019-03-19T11:31:45.242Z,99466.14
2019-03-19T11:34:51.004Z,99459.44
2019-03-19T11:37:56.840Z,99451.23
2019-03-19T11:41:02.692Z,99453.92
2019-03-19T11:44:08.530Z,99447.38
2019-03-19T11:47:14.272Z,99450.14
2019-03-19T11:50:21.762Z,99445.27
2019-03-19T11:53:27.476Z,99449.56
2019-03-19T11:56:33.285Z,99449.56
2019-03-19T11:59:39.000Z,99446.58
2019-03-19T12:02:44.775Z,99438.55
2019-03-19T12:05:50.555Z,99439.98
2019-03-19T12:08:56.333Z,99437.63
2019-03-19T12:12:02.159Z,99436.84
2019-03-19T12:15:08.586Z,99435.45
2019-03-19T12:18:14.411Z,99425.41
2019-03-19T12:21:20.139Z,99424.34
2019-03-19T12:24:25.912Z,99427.52
2019-03-19T12:27:31.753Z,99431.55
2019-03-19T12:30:37.532Z,99423.77
2019-03-19T12:33:43.322Z,99415.42
2019-03-19T12:36:49.140Z,99424.28
2019-03-19T12:39:54.926Z,99418.67
2019-03-19T12:43:00.726Z,99416.98
2019-03-19T12:46:06.449Z,99421.59
2019-03-19T12:49:12.314Z,99417.33
2019-03-19T12:52:18.091Z,99423.19
2019-03-19T12:55:24.037Z,99417.01
2019-03-19T12:58:29.868Z,99414.44
2019-03-19T13:01:36.430Z,99413.14
2019-03-19T13:04:42.262Z,99415.61
2019-03-19T13:07:48.326Z,99414.19
2019-03-19T13:10:54.094Z,99410.11
2019-03-19T13:13:59.910Z,99413.48
2019-03-19T13:17:05.827Z,99413.16
2019-03-19T13:20:12.870Z,99415.89
2019-03-19T13:23:18.654Z,99407.92
2019-03-19T13:26:24.449Z,99411.30
2019-03-19T13:29:30.162Z,99401.43
2019-03-19T13:32:35.885Z,99403.20
2019-03-19T13:35:41.666Z,99394.34
2019-03-19T13:38:47.380Z,99404.55
2019-03-19T13:41:53.125Z,99404.12
2019-03-19T13:44:58.897Z,99401.23
2019-03-19T13:48:04.711Z,99397.12
2019-03-19T13:51:10.547Z,99397.97
2019-03-19T13:54:16.861Z,99399.27
2019-03-19T13:57:22.576Z,99404.94
2019-03-19T14:00:30.067Z,99406.83
2019-03-19T14:03:41.158Z,99407.09
2019-03-19T14:07:16.925Z,99416.86
2019-03-19T14:10:22.976Z,99409.45
2019-03-19T14:13:32.975Z,99410.06
2019-03-19T14:17:23.455Z,99411.34
2019-03-19T14:21:23.740Z,99408.23
2019-03-19T14:24:52.138Z,99402.27
2019-03-19T14:27:58.012Z,99405.22
2019-03-19T14:31:22.584Z,99408.14
2019-03-19T14:35:22.702Z,99411.21
2019-03-19T14:39:26.742Z,99410.13
2019-03-19T14:42:46.119Z,99414.99
2019-03-19T14:45:51.867Z,99421.47
2019-03-19T14:48:57.624Z,99418.73
2019-03-19T14:52:03.379Z,99421.25
2019-03-19T14:55:09.220Z,99427.53
2019-03-19T14:58:15.111Z,99426.42
2019-03-19T15:01:20.850Z,99426.62
2019-03-19T15:04:26.733Z,99435.98
2019-03-19T15:07:32.514Z,99429.79
2019-03-19T15:10:38.307Z,99439.51
2019-03-19T15:13:44.068Z,99440.59
2019-03-19T15:17:27.811Z,99438.05
2019-03-19T15:20:34.819Z,99446.47
2019-03-19T15:24:22.084Z,99441.70
2019-03-19T15:27:32.463Z,99450.67
2019-03-19T15:30:38.197Z,99448.98
2019-03-19T15:33:43.913Z,99457.50
2019-03-19T15:36:49.679Z,99446.78
2019-03-19T15:39:55.388Z,99458.49
2019-03-19T15:43:02.815Z,99451.89
2019-03-19T15:46:28.798Z,99457.63
2019-03-19T15:49:38.539Z,99466.87
2019-03-19T15:52:42.107Z,99473.47
2019-03-19T15:55:47.894Z,99476.59
2019-03-19T15:58:53.618Z,99482.21
2019-03-19T16:01:59.497Z,99487.92
2019-03-19T16:05:05.994Z,99490.58
2019-03-19T16:08:11.883Z,99499.48
2019-03-19T16:11:17.733Z,99505.53
2019-03-19T16:14:24.029Z,99510.30
2019-03-19T16:17:29.789Z,99522.40
2019-03-19T16:20:35.623Z,99528.33
2019-03-19T16:23:41.373Z,99532.72
2019-03-19T16:26:47.178Z,99544.61
2019-03-19T16:29:55.309Z,99547.25
2019-03-19T16:33:07.993Z,99558.09
2019-03-19T16:36:14.852Z,99564.73
2019-03-19T16:39:22.227Z,99573.34
2019-03-19T16:42:43.606Z,99580.97
2019-03-19T16:46:08.986Z,99588.92
2019-03-19T16:49:48.050Z,99603.04
2019-03-19T16:53:14.356Z,99612.30
2019-03-19T16:56:22.916Z,99616.03
2019-03-19T16:59:28.713Z,99618.40
2019-03-19T17:02:34.440Z,99616.17
2019-03-19T17:05:40.390Z,99625.69
2019-03-19T17:08:46.245Z,99628.12
2019-03-19T17:11:52.039Z,99630.44
2019-03-19T17:14:57.760Z,99636.19
2019-03-19T17:18:03.643Z,99635.94
2019-03-19T17:21:09.378Z,99639.64
2019-03-19T17:24:15.234Z,99645.58
2019-03-19T17:27:21.223Z,99647.83
2019-03-19T17:30:26.943Z,99660.77
2019-03-19T17:33:33.777Z,99670.23
2019-03-19T17:36:39.678Z,99668.31
2019-03-19T17:39:45.422Z,99676.77
2019-03-19T17:42:51.345Z,99682.07
2019-03-19T17:45:57.357Z,99676.17
2019-03-19T17:49:03.170Z,99692.73
2019-03-19T17:52:08.916Z,99697.11
2019-03-19T17:55:54.966Z,99708.02
2019-03-19T17:59:00.699Z,99713.59
2019-03-19T18:02:06.544Z,99726.53
2019-03-19T18:05:12.491Z,99728.42
2019-03-19T18:08:18.255Z,99732.55
2019-03-19T18:11:24.110Z,99742.64
2019-03-19T18:14:31.058Z,99746.27
2019-03-19T18:17:36.974Z,99741.19
2019-03-19T18:20:42.714Z,99748.86
2019-03-19T18:23:48.585Z,99751.77
2019-03-19T18:26:54.462Z,99762.80
2019-03-19T18:30:00.296Z,99776.88
2019-03-19T18:33:06.241Z,99778.98
2019-03-19T18:36:12.200Z,99784.52
2019-03-19T18:39:18.035Z,99792.70
2019-03-19T18:42:23.757Z,99819.39
2019-03-19T18:45:29.560Z,99846.78
2019-03-19T18:48:35.292Z,99853.73
2019-03-19T18:51:41.123Z,99864.88
2019-03-19T18:54:46.958Z,99869.97
2019-03-19T18:57:52.835Z,99879.67
2019-03-19T19:00:58.546Z,99879.44
2019-03-19T19:04:04.284Z,99892.77
2019-03-19T19:07:09.998Z,99910.64
2019-03-19T19:10:15.866Z,99920.23
2019-03-19T19:13:21.606Z,99927.20
2019-03-19T19:16:27.472Z,99931.63
2019-03-19T19:19:37.669Z,99937.01
2019-03-19T19:23:52.981Z,99948.53
2019-03-19T19:27:45.017Z,99956.32
2019-03-19T19:30:53.600Z,99964.73
2019-03-19T19:33:59.301Z,99980.23
2019-03-19T19:37:05.133Z,99982.06
2019-03-19T19:40:12.762Z,99993.28
2019-03-19T19:43:20.009Z,99994.40
2019-03-19T19:46:25.761Z,99996.61
2019-03-19T19:49:31.602Z,99995.31
2019-03-19T19:52:37.450Z,100015.00
2019-03-19T19:55:43.387Z,100003.19
2019-03-19T19:58:49.144Z,100006.61
2019-03-19T20:01:54.949Z,100016.95
2019-03-19T20:05:03.302Z,100023.70
2019-03-19T20:08:08.419Z,100023.02
2019-03-19T20:11:14.611Z,100032.11
2019-03-19T20:14:20.567Z,100029.63
2019-03-19T20:17:27.121Z,100027.17
2019-03-19T20:20:33.000Z,100021.09
2019-03-19T20:23:38.755Z,100031.31
2019-03-19T20:26:44.693Z,100021.58
2019-03-19T20:29:50.557Z,100021.73
2019-03-19T20:32:56.521Z,100020.05
2019-03-19T20:36:02.261Z,100018.95
2019-03-19T20:39:08.797Z,100016.77
2019-03-19T20:42:14.575Z,100016.61
2019-03-19T20:45:20.422Z,100015.03
2019-03-19T20:48:26.188Z,100009.39
2019-03-19T20:51:33.077Z,100011.05
2019-03-19T20:54:38.796Z,99998.11
2019-03-19T20:57:44.617Z,99994.47
2019-03-19T21:00:50.386Z,99994.95
2019-03-19T21:03:57.273Z,99988.71
2019-03-19T21:07:02.978Z,99979.45
2019-03-19T21:10:10.291Z,99975.16
2019-03-19T21:13:16.129Z,99977.87
2019-03-19T21:16:22.090Z,99985.74
2019-03-19T21:19:27.890Z,99981.27
2019-03-19T21:22:33.604Z,99985.81
2019-03-19T21:25:39.473Z,99988.56
2019-03-19T21:28:45.336Z,99989.39
2019-03-19T21:31:51.214Z,99981.48
2019-03-19T21:34:56.925Z,99968.17
2019-03-19T21:38:02.793Z,99966.04
2019-03-19T21:41:08.532Z,99974.77
2019-03-19T21:44:14.358Z,99972.74
2019-03-19T21:47:20.078Z,99970.30
2019-03-19T21:50:25.854Z,99971.12
2019-03-19T21:53:31.572Z,99972.73
2019-03-19T21:56:37.485Z,99980.41
2019-03-19T21:59:43.451Z,99990.49
2019-03-19T22:02:49.178Z,99989.67
2019-03-19T22:05:54.940Z,99991.16
2019-03-19T22:09:00.672Z,99984.40
2019-03-19T22:12:08.044Z,99992.30
2019-03-19T22:15:16.041Z,99988.58
2019-03-19T22:18:21.911Z,99991.80
2019-03-19T22:21:27.646Z,99993.95
2019-03-19T22:24:33.390Z,100001.96
2019-03-19T22:27:39.153Z,100003.51
2019-03-19T22:30:45.014Z,99999.58
2019-03-19T22:33:50.788Z,99999.25
2019-03-19T22:36:56.566Z,99997.05
2019-03-19T22:40:02.404Z,99999.39
2019-03-19T22:43:08.338Z,100004.02
2019-03-19T22:46:21.765Z,100004.98
2019-03-19T22:49:21.627Z,100000.30
2019-03-19T22:52:27.408Z,100002.45
2019-03-19T22:55:33.404Z,99998.82
2019-03-19T22:58:39.174Z,100002.09
2019-03-19T23:01:45.080Z,100000.78
2019-03-19T23:04:50.879Z,100001.86
2019-03-19T23:07:56.633Z,100000.91
2019-03-19T23:11:02.640Z,100003.15
2019-03-19T23:14:08.473Z,100004.77
2019-03-19T23:17:14.361Z,100005.11
2019-03-19T23:20:20.266Z,100006.25
2019-03-19T23:23:25.999Z,100007.77
2019-03-19T23:26:31.873Z,100010.83
2019-03-19T23:29:37.711Z,100011.45
2019-03-19T23:32:43.637Z,100013.33
2019-03-19T23:35:49.397Z,100017.25
2019-03-19T23:38:55.175Z,100018.11
2019-03-19T23:42:00.998Z,100014.97
2019-03-19T23:45:07.742Z,100020.25
2019-03-19T23:48:13.551Z,100021.84
2019-03-19T23:51:19.374Z,100025.95
2019-03-19T23:54:25.179Z,100038.67
2019-03-19T23:57:30.921Z,100044.37
